Time;durP1;ratioP1;P1;durP2;ratioP2;P2;SDS_P1;SDS_P2;PMS_P1;PMS_P2;Temp;Humidity;BMP_temperature;BMP_pressure;BME280_temperature;BME280_humidity;BME280_pressure;Samples;Min_cycle;Max_cycle;Signal;HPM_P1;HPM_P2
2022/04/13 00:01:03;;;;;;;14.18;7.15;;;;;;;23.32;15.53;98640.16;5071552;28;20033;-75
2022/04/13 00:03:29;;;;;;;13.27;7.05;;;;;;;23.20;15.75;98632.28;5073146;28;20040;-76
2022/04/13 00:05:56;;;;;;;14.18;7.05;;;;;;;23.15;15.81;98627.13;5069080;28;20072;-75
2022/04/13 00:08:22;;;;;;;17.73;7.40;;;;;;;23.18;15.67;98627.09;5073163;28;20068;-76
2022/04/13 00:10:48;;;;;;;13.02;6.90;;;;;;;23.42;15.75;98628.09;5070362;28;20044;-76
2022/04/13 00:13:15;;;;;;;11.23;6.63;;;;;;;23.72;15.30;98639.38;5075933;28;20393;-76
2022/04/13 00:15:41;;;;;;;16.42;7.28;;;;;;;23.59;15.32;98632.72;5073206;28;20033;-76
2022/04/13 00:18:08;;;;;;;13.07;6.68;;;;;;;23.42;15.64;98630.09;5069500;28;20028;-76
2022/04/13 00:20:36;;;;;;;11.93;7.18;;;;;;;23.56;15.53;98635.53;5073587;28;20607;-76
2022/04/13 00:23:02;;;;;;;15.02;7.30;;;;;;;23.73;15.36;98640.16;5072477;28;20028;-76
2022/04/13 00:25:28;;;;;;;12.85;6.95;;;;;;;23.87;15.08;98640.78;5071683;28;20039;-77
2022/04/13 00:27:55;;;;;;;17.17;7.18;;;;;;;23.79;15.46;98641.28;5073990;28;20041;-76
2022/04/13 00:30:21;;;;;;;13.55;7.05;;;;;;;23.68;15.61;98637.81;5068007;28;20036;-76
2022/04/13 00:32:47;;;;;;;13.40;7.22;;;;;;;23.89;15.23;98640.38;5073933;28;20091;-76
2022/04/13 00:35:13;;;;;;;17.45;7.70;;;;;;;23.99;15.25;98642.25;5069757;28;20107;-76
2022/04/13 00:37:40;;;;;;;17.92;8.35;;;;;;;24.05;15.26;98646.16;5073313;28;20501;-76
2022/04/13 00:40:07;;;;;;;13.88;6.97;;;;;;;23.30;15.75;98645.38;5072470;28;20039;-76
2022/04/13 00:42:33;;;;;;;17.23;8.10;;;;;;;22.69;16.73;98642.31;5071951;28;20036;-76
2022/04/13 00:44:59;;;;;;;24.65;9.23;;;;;;;22.36;16.92;98644.91;5072594;28;20120;-76
2022/04/13 00:47:26;;;;;;;14.35;7.68;;;;;;;22.37;16.85;98646.50;5075743;28;20051;-76
2022/04/13 00:49:55;;;;;;;13.38;7.65;;;;;;;22.29;17.12;98647.72;5072007;28;20472;-75
2022/04/13 00:52:26;;;;;;;18.27;8.38;;;;;;;22.42;17.03;98644.09;5075654;28;20037;-76
2022/04/13 00:54:55;;;;;;;16.92;8.15;;;;;;;22.55;16.96;98644.38;5074598;28;20097;-76
2022/04/13 00:57:22;;;;;;;17.25;8.15;;;;;;;23.17;16.43;98644.31;5071977;28;20041;-76
2022/04/13 00:59:53;;;;;;;13.00;7.07;;;;;;;23.00;16.13;98637.66;5071446;28;20044;-76
2022/04/13 01:02:20;;;;;;;14.43;7.43;;;;;;;22.96;16.36;98644.50;5071673;28;20211;-76
2022/04/13 01:04:48;;;;;;;14.02;7.05;;;;;;;22.99;16.24;98635.25;5073017;28;20028;-75
2022/04/13 01:07:14;;;;;;;12.75;6.32;;;;;;;23.52;15.85;98637.59;5070791;28;20478;-75
2022/04/13 01:09:40;;;;;;;16.95;8.23;;;;;;;23.77;15.50;98638.09;5072355;28;20037;-76
2022/04/13 01:12:07;;;;;;;14.23;7.03;;;;;;;23.77;15.49;98636.09;5075773;28;20024;-75
2022/04/13 01:14:34;;;;;;;14.45;6.30;;;;;;;23.65;15.33;98636.63;5070719;28;20047;-76
2022/04/13 01:17:01;;;;;;;13.35;7.57;;;;;;;23.64;15.58;98631.47;5075871;28;20028;-76
2022/04/13 01:19:27;;;;;;;14.63;6.47;;;;;;;23.47;15.79;98633.25;5078444;28;20410;-76
2022/04/13 01:21:58;;;;;;;14.02;7.32;;;;;;;23.46;15.62;98631.63;5075014;28;20044;-76
2022/04/13 01:24:25;;;;;;;14.73;7.40;;;;;;;23.56;15.62;98633.53;5075409;28;20032;-76
2022/04/13 01:26:51;;;;;;;12.95;6.60;;;;;;;23.42;15.72;98630.09;5072779;28;20048;-76
2022/04/13 01:29:17;;;;;;;15.23;6.72;;;;;;;23.17;15.88;98616.31;5072358;28;20028;-76
2022/04/13 01:31:45;;;;;;;13.95;7.30;;;;;;;23.14;15.94;98615.13;5073556;28;20024;-76
2022/04/13 01:34:12;;;;;;;12.25;6.07;;;;;;;23.13;16.09;98621.13;5072071;28;20052;-75
2022/04/13 01:36:39;;;;;;;13.10;7.05;;;;;;;23.22;15.79;98613.84;5074595;28;20037;-76
2022/04/13 01:39:06;;;;;;;10.95;6.75;;;;;;;23.57;15.52;98611.91;5077333;28;20054;-75
2022/04/13 01:41:33;;;;;;;11.10;5.80;;;;;;;23.77;15.20;98618.47;5074120;28;20028;-75
2022/04/13 01:43:59;;;;;;;13.27;6.25;;;;;;;24.18;14.71;98621.97;5073421;28;20036;-75
2022/04/13 01:46:25;;;;;;;17.25;6.68;;;;;;;24.42;14.56;98620.03;5081124;28;20036;-75
2022/04/13 01:48:51;;;;;;;11.05;5.70;;;;;;;24.49;14.40;98620.72;5073186;28;20092;-75
2022/04/13 01:51:20;;;;;;;9.88;5.43;;;;;;;24.47;14.30;98625.97;5077874;28;20043;-75
2022/04/13 01:53:47;;;;;;;11.43;6.03;;;;;;;24.44;14.44;98626.81;5078606;28;20028;-76
2022/04/13 01:56:13;;;;;;;12.88;6.57;;;;;;;24.42;14.57;98628.44;5071869;28;20481;-76
2022/04/13 01:58:39;;;;;;;11.40;6.45;;;;;;;24.47;14.62;98623.16;5076425;28;20040;-75
2022/04/13 02:01:06;;;;;;;12.57;6.30;;;;;;;24.36;14.58;98628.16;5068703;28;20539;-75
2022/04/13 02:03:32;;;;;;;14.23;6.95;;;;;;;24.13;14.98;98618.84;5076463;28;20115;-75
2022/04/13 02:05:58;;;;;;;10.20;5.72;;;;;;;23.93;14.99;98624.28;5072836;28;20115;-75
2022/04/13 02:08:26;;;;;;;13.75;7.00;;;;;;;23.88;14.95;98630.34;5074882;28;20163;-76
2022/04/13 02:10:52;;;;;;;14.25;7.32;;;;;;;23.62;15.46;98623.44;5071957;28;20056;-76
2022/04/13 02:13:21;;;;;;;16.05;7.97;;;;;;;23.35;15.71;98616.94;5072835;28;20127;-75
2022/04/13 02:15:48;;;;;;;14.90;7.82;;;;;;;23.08;16.07;98616.78;5071929;28;20043;-75
2022/04/13 02:18:15;;;;;;;13.77;7.60;;;;;;;23.18;15.82;98615.88;5075829;28;20030;-75
2022/04/13 02:20:41;;;;;;;13.73;7.32;;;;;;;23.10;15.94;98619.97;5066974;28;20046;-75
2022/04/13 02:23:07;;;;;;;13.93;7.13;;;;;;;23.06;16.15;98622.00;5071816;28;20056;-75
2022/04/13 02:25:35;;;;;;;17.48;6.80;;;;;;;22.99;15.99;98626.84;5073763;28;20050;-76
2022/04/13 02:28:02;;;;;;;14.65;6.93;;;;;;;23.30;15.68;98622.97;5069749;28;20411;-75
2022/04/13 02:30:28;;;;;;;16.88;7.47;;;;;;;23.23;15.72;98620.25;5072964;28;20406;-75
2022/04/13 02:32:55;;;;;;;14.75;7.57;;;;;;;23.19;15.99;98625.09;5073229;28;20047;-75
2022/04/13 02:35:21;;;;;;;14.05;7.22;;;;;;;23.19;15.86;98625.09;5072581;28;20036;-76
2022/04/13 02:37:47;;;;;;;15.15;7.95;;;;;;;22.44;16.46;98619.28;5075441;28;20526;-75
2022/04/13 02:40:13;;;;;;;14.50;7.80;;;;;;;22.25;16.88;98625.38;5076895;28;20090;-75
2022/04/13 02:42:39;;;;;;;13.20;7.38;;;;;;;21.90;17.27;98623.56;5076006;28;20505;-75
2022/04/13 02:45:06;;;;;;;17.00;8.48;;;;;;;21.74;17.56;98622.41;5074245;28;20024;-75
2022/04/13 02:47:36;;;;;;;17.33;8.98;;;;;;;21.97;17.23;98625.53;5077295;28;20173;-75
2022/04/13 02:50:06;;;;;;;14.20;7.07;;;;;;;22.52;16.63;98628.44;5072007;28;20455;-75
2022/04/13 02:52:32;;;;;;;16.75;7.55;;;;;;;23.00;16.29;98634.06;5072395;28;20096;-76
2022/04/13 02:54:59;;;;;;;12.88;7.68;;;;;;;23.24;15.97;98630.25;5075721;28;20040;-75
2022/04/13 02:57:25;;;;;;;12.65;7.00;;;;;;;23.27;15.87;98633.00;5070680;28;20074;-76
2022/04/13 02:59:52;;;;;;;15.18;7.55;;;;;;;23.17;15.71;98619.91;5073508;28;20048;-75
2022/04/13 03:02:19;;;;;;;13.73;7.13;;;;;;;22.93;16.09;98629.31;5070183;28;20084;-76
2022/04/13 03:04:46;;;;;;;12.88;7.15;;;;;;;22.66;16.25;98631.16;5076681;28;20039;-75
2022/04/13 03:07:15;;;;;;;12.40;6.07;;;;;;;22.52;16.21;98625.63;5074253;28;20081;-75
2022/04/13 03:09:41;;;;;;;14.50;6.43;;;;;;;22.45;16.50;98620.84;5071792;28;20032;-75
2022/04/13 03:12:08;;;;;;;12.60;6.75;;;;;;;22.61;16.35;98626.75;5069488;28;20016;-75
2022/04/13 03:14:35;;;;;;;13.20;7.22;;;;;;;22.58;16.27;98623.97;5074935;28;20035;-75
2022/04/13 03:17:02;;;;;;;12.65;6.40;;;;;;;22.59;16.47;98626.34;5076388;28;20024;-75
2022/04/13 03:19:28;;;;;;;10.20;6.70;;;;;;;22.44;16.46;98632.47;5072896;28;20028;-75
2022/04/13 03:21:54;;;;;;;10.60;5.40;;;;;;;22.45;16.58;98634.84;5074282;28;20035;-75
2022/04/13 03:24:24;;;;;;;12.52;6.47;;;;;;;22.35;16.47;98630.13;5071380;28;20033;-75
2022/04/13 03:26:51;;;;;;;9.18;5.15;;;;;;;22.42;16.55;98634.88;5074181;28;20048;-75
2022/04/13 03:29:18;;;;;;;9.70;5.38;;;;;;;22.27;16.73;98633.38;5071196;28;20931;-75
2022/04/13 03:31:45;;;;;;;12.90;6.57;;;;;;;22.18;16.91;98628.22;5071755;28;20036;-75
2022/04/13 03:34:11;;;;;;;10.82;5.63;;;;;;;21.54;17.14;98638.06;5071734;28;20059;-75
2022/04/13 03:36:40;;;;;;;11.80;6.00;;;;;;;21.01;17.76;98649.28;5071162;28;20037;-75
2022/04/13 03:39:09;;;;;;;11.52;5.70;;;;;;;21.00;18.02;98642.13;5065730;28;20413;-75
2022/04/13 03:41:36;;;;;;;13.00;7.63;;;;;;;20.52;18.89;98647.25;5072254;28;20090;-75
2022/04/13 03:44:03;;;;;;;10.18;5.88;;;;;;;21.03;18.44;98638.50;5069663;28;20036;-75
2022/04/13 03:46:29;;;;;;;12.88;6.45;;;;;;;21.03;18.27;98642.09;5080119;28;20153;-75
2022/04/13 03:48:55;;;;;;;13.30;7.18;;;;;;;21.99;17.37;98643.50;5072051;28;20410;-75
2022/04/13 03:51:21;;;;;;;12.65;6.30;;;;;;;22.61;16.71;98653.97;5074916;28;20036;-75
2022/04/13 03:53:48;;;;;;;13.50;6.38;;;;;;;23.17;16.22;98644.31;5072739;28;20044;-75
2022/04/13 03:56:14;;;;;;;16.45;7.65;;;;;;;23.58;15.96;98647.13;5078180;28;20040;-75
2022/04/13 03:58:40;;;;;;;11.30;6.50;;;;;;;23.60;15.66;98651.09;5074596;28;20028;-76
2022/04/13 04:01:07;;;;;;;11.82;6.65;;;;;;;23.67;15.68;98651.03;5075725;28;20024;-75
2022/04/13 04:03:35;;;;;;;13.63;7.82;;;;;;;23.62;15.61;98651.47;5073582;28;20119;-75
2022/04/13 04:06:01;;;;;;;9.05;5.60;;;;;;;23.63;15.54;98650.28;5076340;28;20028;-75
2022/04/13 04:08:28;;;;;;;10.77;6.47;;;;;;;23.64;15.65;98651.09;5074828;28;20105;-76
2022/04/13 04:10:54;;;;;;;13.02;6.45;;;;;;;23.64;15.52;98656.69;5073565;28;20036;-75
2022/04/13 04:13:21;;;;;;;13.93;7.53;;;;;;;23.43;15.79;98651.31;5075225;28;20159;-75
2022/04/13 04:15:47;;;;;;;11.65;6.65;;;;;;;23.33;15.76;98664.19;5080267;28;20024;-75
2022/04/13 04:18:13;;;;;;;11.75;6.35;;;;;;;23.40;15.64;98658.53;5074592;28;20028;-76
2022/04/13 04:20:39;;;;;;;13.25;6.57;;;;;;;23.24;15.96;98663.88;5071629;28;20032;-76
2022/04/13 04:23:05;;;;;;;10.85;6.50;;;;;;;23.25;16.13;98671.03;5073530;28;20071;-76
2022/04/13 04:25:31;;;;;;;10.68;7.05;;;;;;;23.45;16.00;98666.50;5070028;28;20064;-75
2022/04/13 04:27:57;;;;;;;11.23;6.75;;;;;;;23.81;16.02;98661.28;5071604;28;20110;-75
2022/04/13 04:30:24;;;;;;;11.43;6.28;;;;;;;24.68;15.03;98669.78;5075669;28;20050;-76
2022/04/13 04:32:50;;;;;;;12.40;6.63;;;;;;;24.89;14.64;98663.88;5071728;28;20418;-75
2022/04/13 04:35:16;;;;;;;11.85;6.00;;;;;;;24.44;15.28;98671.72;5077738;28;20532;-75
2022/04/13 04:37:42;;;;;;;10.55;6.63;;;;;;;24.01;15.66;98673.47;5075086;28;20028;-75
2022/04/13 04:40:08;;;;;;;13.18;6.30;;;;;;;23.71;15.87;98665.78;5070033;28;20448;-76
2022/04/13 04:42:49;;;;;;;14.13;6.63;;;;;;;23.74;15.99;98661.38;5070132;28;20094;-76
2022/04/13 04:45:19;;;;;;;10.80;6.22;;;;;;;23.81;15.90;98669.69;5061946;28;20032;-76
2022/04/13 04:47:49;;;;;;;12.13;5.95;;;;;;;24.00;15.74;98671.88;5074346;28;20524;-77
2022/04/13 04:50:17;;;;;;;10.77;7.05;;;;;;;24.10;15.99;98676.59;5078311;28;20028;-77
2022/04/13 04:52:44;;;;;;;16.15;6.70;;;;;;;24.35;15.72;98688.28;5080734;28;20034;-77
2022/04/13 04:55:12;;;;;;;14.02;7.63;;;;;;;24.81;15.88;98689.69;5083223;28;20166;-77
2022/04/13 04:57:39;;;;;;;16.42;8.40;;;;;;;24.95;15.66;98679.00;5083207;28;20235;-77
2022/04/13 05:00:07;;;;;;;12.70;7.57;;;;;;;25.55;15.18;98680.03;5081944;28;20040;-77
2022/04/13 05:02:35;;;;;;;12.40;7.18;;;;;;;25.77;15.12;98682.00;5079181;28;20028;-75
2022/04/13 05:05:02;;;;;;;10.98;7.05;;;;;;;25.47;15.08;98687.00;5076386;28;20111;-76
2022/04/13 05:07:28;;;;;;;11.70;6.72;;;;;;;25.68;14.98;98689.41;5080272;28;20036;-76
2022/04/13 05:09:54;;;;;;;11.13;7.10;;;;;;;25.59;14.89;98692.00;5074106;28;20043;-76
2022/04/13 05:12:20;;;;;;;11.85;6.43;;;;;;;24.70;15.63;98701.03;5077894;28;20027;-76
2022/04/13 05:14:46;;;;;;;16.08;6.57;;;;;;;24.79;15.71;98697.72;5077989;28;20036;-75
2022/04/13 05:17:12;;;;;;;13.13;7.13;;;;;;;24.10;16.09;98695.44;5074376;28;20102;-76
2022/04/13 05:19:38;;;;;;;11.80;6.28;;;;;;;24.38;15.99;98695.88;5073777;28;20028;-76
2022/04/13 05:22:04;;;;;;;10.50;6.60;;;;;;;23.84;16.46;98700.53;5075900;28;20111;-76
2022/04/13 05:24:30;;;;;;;9.63;5.88;;;;;;;23.50;16.68;98704.50;5079475;28;20033;-76
2022/04/13 05:26:56;;;;;;;12.38;6.18;;;;;;;23.11;17.21;98705.59;5076111;28;20044;-76
2022/04/13 05:29:22;;;;;;;9.93;5.78;;;;;;;23.04;17.32;98707.63;5077873;28;20035;-77
2022/04/13 05:31:48;;;;;;;11.82;6.32;;;;;;;22.97;17.62;98702.09;5083651;28;20113;-77
2022/04/13 05:34:14;;;;;;;12.70;7.22;;;;;;;23.45;17.03;98702.13;5080682;28;20039;-77
2022/04/13 05:36:40;;;;;;;10.30;4.65;;;;;;;24.13;16.35;98703.81;5076461;28;20036;-77
2022/04/13 05:39:06;;;;;;;11.40;5.18;;;;;;;24.28;16.34;98707.22;5079640;28;20036;-77
2022/04/13 05:41:33;;;;;;;9.68;5.38;;;;;;;24.57;16.02;98709.25;5083613;28;20034;-76
2022/04/13 05:43:59;;;;;;;13.25;6.70;;;;;;;25.37;15.86;98705.59;5083293;28;20032;-77
2022/04/13 05:46:25;;;;;;;11.05;5.95;;;;;;;25.14;16.23;98709.22;5075448;28;20035;-76
2022/04/13 05:48:51;;;;;;;12.00;5.20;;;;;;;25.65;15.61;98707.16;5082756;28;20028;-77
2022/04/13 05:51:17;;;;;;;11.07;6.75;;;;;;;24.88;16.06;98710.00;5081653;28;20477;-77
2022/04/13 05:53:43;;;;;;;11.32;5.57;;;;;;;25.36;15.73;98709.66;5086863;28;20090;-77
2022/04/13 05:56:09;;;;;;;14.38;7.50;;;;;;;25.40;15.55;98699.94;5080025;28;20136;-77
2022/04/13 05:58:35;;;;;;;11.00;5.93;;;;;;;25.64;15.33;98705.56;5079332;28;20066;-77
2022/04/13 06:01:01;;;;;;;9.32;5.68;;;;;;;25.72;15.31;98701.41;5084114;28;20032;-77
2022/04/13 06:03:27;;;;;;;12.95;6.22;;;;;;;25.75;15.43;98706.16;5077406;28;20493;-77
2022/04/13 06:05:53;;;;;;;11.05;6.75;;;;;;;25.15;15.89;98716.44;5077622;28;20035;-77
2022/04/13 06:08:19;;;;;;;11.10;6.63;;;;;;;24.37;17.04;98722.34;5080269;28;20036;-77
2022/04/13 06:10:46;;;;;;;11.70;6.60;;;;;;;25.15;16.11;98726.88;5083092;28;20099;-77
2022/04/13 06:13:12;;;;;;;9.82;4.88;;;;;;;26.13;15.25;98721.53;5079769;28;20134;-77
2022/04/13 06:15:38;;;;;;;6.88;4.60;;;;;;;26.71;14.99;98720.69;5087540;28;20085;-78
2022/04/13 06:18:04;;;;;;;11.98;5.13;;;;;;;27.15;14.72;98727.72;5076884;28;20116;-77
2022/04/13 06:20:30;;;;;;;7.55;4.40;;;;;;;27.26;14.47;98724.63;5080776;28;20032;-77
2022/04/13 06:22:56;;;;;;;10.73;5.78;;;;;;;27.62;14.32;98730.22;5082804;28;20064;-77
2022/04/13 06:25:22;;;;;;;9.88;5.50;;;;;;;27.09;14.36;98725.88;5075761;28;20082;-77
2022/04/13 06:27:49;;;;;;;9.25;5.30;;;;;;;27.12;14.42;98722.19;5076293;28;20634;-79
2022/04/13 06:30:15;;;;;;;9.50;6.15;;;;;;;26.37;15.42;98731.47;5078211;28;20379;-78
2022/04/13 06:32:43;;;;;;;10.05;5.50;;;;;;;26.39;15.46;98722.59;5078019;28;20024;-78
2022/04/13 06:35:11;;;;;;;9.00;5.15;;;;;;;27.07;15.23;98728.34;5079719;28;20425;-78
2022/04/13 06:37:40;;;;;;;7.80;5.30;;;;;;;27.16;15.05;98737.00;5077659;28;20486;-78
2022/04/13 06:40:07;;;;;;;8.45;4.53;;;;;;;26.96;14.68;98724.97;5075864;28;20089;-78
2022/04/13 06:42:36;;;;;;;9.52;4.80;;;;;;;26.33;15.69;98724.31;5076387;28;20024;-78
2022/04/13 06:45:07;;;;;;;7.72;4.90;;;;;;;26.50;15.54;98735.22;5078689;28;24149;-77
2022/04/13 06:47:33;;;;;;;7.00;4.07;;;;;;;26.00;15.25;98724.16;5078515;28;20043;-77
2022/04/13 06:49:59;;;;;;;5.85;4.10;;;;;;;26.48;14.83;98731.25;5077241;28;20063;-77
2022/04/13 06:52:25;;;;;;;6.57;3.85;;;;;;;25.56;15.70;98729.41;5078565;28;20052;-77
2022/04/13 06:54:51;;;;;;;8.38;4.55;;;;;;;25.67;15.94;98730.81;5075504;28;20063;-77
2022/04/13 06:57:17;;;;;;;4.35;2.72;;;;;;;26.65;15.46;98728.03;5077677;28;20115;-77
2022/04/13 06:59:43;;;;;;;5.55;3.00;;;;;;;27.26;14.78;98731.06;5077281;28;20032;-78
2022/04/13 07:02:12;;;;;;;9.85;3.70;;;;;;;27.22;14.33;98740.84;5077066;28;20056;-76
2022/04/13 07:04:39;;;;;;;5.60;3.20;;;;;;;26.58;14.62;98733.84;5075904;28;20028;-77
2022/04/13 07:07:05;;;;;;;7.00;3.58;;;;;;;26.81;14.67;98743.44;5077643;28;20036;-77
2022/04/13 07:09:32;;;;;;;4.55;2.90;;;;;;;27.80;13.69;98728.50;5076856;28;20059;-77
2022/04/13 07:11:58;;;;;;;5.53;3.35;;;;;;;26.96;14.32;98733.41;5078542;28;20195;-77
2022/04/13 07:14:24;;;;;;;5.30;2.83;;;;;;;27.51;14.61;98736.13;5080557;28;20028;-77
2022/04/13 07:16:50;;;;;;;4.15;2.72;;;;;;;28.25;14.20;98730.53;5076147;28;20036;-77
2022/04/13 07:19:16;;;;;;;5.38;2.55;;;;;;;28.38;13.64;98734.19;5077287;28;20105;-77
2022/04/13 07:21:43;;;;;;;3.47;2.90;;;;;;;27.61;14.11;98732.22;5073045;28;20064;-77
2022/04/13 07:24:10;;;;;;;4.95;3.00;;;;;;;27.07;15.13;98740.41;5080525;28;20028;-77
2022/04/13 07:26:37;;;;;;;5.93;2.55;;;;;;;27.42;14.81;98744.44;5077204;28;20041;-77
2022/04/13 07:29:03;;;;;;;5.95;2.53;;;;;;;27.95;13.99;98734.56;5083967;28;20089;-77
2022/04/13 07:31:29;;;;;;;6.28;2.75;;;;;;;27.81;13.83;98741.38;5063480;28;20068;-77
2022/04/13 07:33:56;;;;;;;5.53;2.40;;;;;;;27.99;13.80;98741.72;5079485;28;20036;-77
2022/04/13 07:36:23;;;;;;;5.63;2.40;;;;;;;26.53;14.97;98748.44;5088347;28;20107;-77
2022/04/13 07:38:52;;;;;;;7.82;2.72;;;;;;;24.34;17.12;98750.47;5088030;28;20028;-77
2022/04/13 07:41:18;;;;;;;4.43;2.38;;;;;;;25.86;15.54;98743.31;5093177;28;20061;-77
2022/04/13 07:43:44;;;;;;;4.25;2.50;;;;;;;26.58;15.20;98752.78;5074061;28;20346;-78
2022/04/13 07:46:10;;;;;;;3.85;2.38;;;;;;;27.32;13.63;98737.78;5076210;28;20032;-77
2022/04/13 07:48:36;;;;;;;4.72;2.30;;;;;;;26.23;15.47;98740.25;5079473;28;20039;-77
2022/04/13 07:51:03;;;;;;;3.70;2.13;;;;;;;27.60;14.18;98736.31;5079970;28;20042;-77
2022/04/13 07:53:29;;;;;;;5.55;2.25;;;;;;;27.42;13.89;98732.34;5075710;28;20029;-77
2022/04/13 07:55:55;;;;;;;5.65;2.13;;;;;;;27.59;14.23;98731.09;5075029;28;20079;-77
2022/04/13 07:58:21;;;;;;;5.35;2.58;;;;;;;26.94;14.19;98736.69;5072405;28;20044;-77
2022/04/13 08:00:47;;;;;;;2.90;1.88;;;;;;;27.72;13.82;98726.31;5074105;28;20044;-77
2022/04/13 08:03:13;;;;;;;2.63;1.90;;;;;;;28.65;13.32;98729.75;5075733;28;20056;-77
2022/04/13 08:05:40;;;;;;;3.58;1.58;;;;;;;29.36;12.35;98733.97;5074220;28;20062;-77
2022/04/13 08:08:06;;;;;;;2.90;1.80;;;;;;;29.97;11.96;98733.50;5080971;28;20040;-77
2022/04/13 08:10:33;;;;;;;3.47;2.35;;;;;;;29.60;12.12;98727.94;5072827;28;20079;-77
2022/04/13 08:12:59;;;;;;;2.65;1.60;;;;;;;29.50;12.81;98735.53;5073136;28;20048;-77
2022/04/13 08:15:25;;;;;;;5.68;1.85;;;;;;;29.72;12.27;98727.09;5072950;28;20107;-77
2022/04/13 08:17:51;;;;;;;3.10;1.95;;;;;;;30.25;12.28;98734.50;5081224;28;20032;-77
2022/04/13 08:20:17;;;;;;;3.10;1.90;;;;;;;30.35;11.67;98726.91;5080376;28;20024;-77
2022/04/13 08:22:46;;;;;;;4.00;1.75;;;;;;;30.46;12.71;98725.25;5076590;28;20497;-77
2022/04/13 08:25:12;;;;;;;2.03;1.50;;;;;;;29.91;11.70;98732.53;5083111;28;20469;-77
2022/04/13 08:27:39;;;;;;;2.78;2.20;;;;;;;27.91;13.53;98734.66;5090969;28;20413;-77
2022/04/13 08:30:06;;;;;;;2.90;2.00;;;;;;;28.64;13.45;98728.16;5082117;28;20103;-77
2022/04/13 08:32:32;;;;;;;2.38;1.60;;;;;;;29.41;12.85;98722.09;5077978;28;20028;-77
2022/04/13 08:34:58;;;;;;;1.65;1.55;;;;;;;29.69;12.21;98722.34;5074797;28;20032;-77
2022/04/13 08:37:29;;;;;;;2.78;2.00;;;;;;;29.83;13.52;98731.19;5079685;28;20124;-77
2022/04/13 08:39:55;;;;;;;2.63;1.55;;;;;;;30.36;12.81;98720.00;5079761;28;20382;-77
2022/04/13 08:42:46;;;;;;;2.90;1.70;;;;;;;29.25;12.46;98722.22;5095023;28;20398;-77
2022/04/13 08:45:21;;;;;;;3.47;1.95;;;;;;;29.79;12.66;98715.56;5082214;28;20028;-77
2022/04/13 08:47:49;;;;;;;4.32;1.83;;;;;;;29.98;12.74;98720.94;5076104;28;20082;-77
2022/04/13 08:50:17;;;;;;;3.40;1.88;;;;;;;29.09;12.49;98719.50;5071454;28;20028;-77
2022/04/13 08:52:51;;;;;;;3.20;2.05;;;;;;;29.04;11.81;98713.59;5082733;28;20074;-77
2022/04/13 08:55:21;;;;;;;2.38;1.65;;;;;;;28.45;12.87;98708.56;5077844;28;20036;-77
2022/04/13 08:57:53;;;;;;;2.05;1.48;;;;;;;29.65;12.89;98710.38;5076314;28;20362;-77
2022/04/13 09:00:22;;;;;;;2.95;1.88;;;;;;;30.64;12.55;98711.19;5083815;28;20405;-77
2022/04/13 09:02:47;;;;;;;4.45;1.63;;;;;;;31.18;12.13;98707.84;5073884;28;20017;-77
2022/04/13 09:05:19;;;;;;;2.60;1.23;;;;;;;31.49;12.31;98701.31;5083759;28;20082;-78
2022/04/13 09:07:56;;;;;;;4.30;2.30;;;;;;;31.32;11.22;98706.47;5080588;28;20029;-77
2022/04/13 09:10:23;;;;;;;1.83;1.20;;;;;;;31.32;11.26;98700.81;5072754;28;20503;-78
2022/04/13 09:12:51;;;;;;;9.57;1.70;;;;;;;30.63;12.43;98700.31;5070650;28;20485;-78
2022/04/13 09:15:17;;;;;;;4.38;1.88;;;;;;;27.79;13.86;98707.19;5072423;28;20127;-78
2022/04/13 09:17:44;;;;;;;2.75;1.52;;;;;;;29.22;13.07;98711.03;5077534;28;20461;-77
2022/04/13 09:20:11;;;;;;;3.47;2.38;;;;;;;29.91;12.87;98709.88;5078857;28;20466;-77
2022/04/13 09:22:39;;;;;;;3.83;1.85;;;;;;;30.67;12.93;98712.31;5077176;28;20545;-78
2022/04/13 09:25:07;;;;;;;2.00;1.30;;;;;;;31.25;12.47;98709.63;5070610;28;20028;-77
2022/04/13 09:27:35;;;;;;;3.08;1.73;;;;;;;29.74;12.58;98716.91;5073894;28;20071;-77
2022/04/13 09:30:02;;;;;;;2.92;1.33;;;;;;;30.66;12.13;98714.38;5075246;28;20040;-77
2022/04/13 09:32:30;;;;;;;2.75;1.65;;;;;;;31.19;12.05;98708.63;5080203;28;20033;-77
2022/04/13 09:34:57;;;;;;;3.50;1.80;;;;;;;31.55;11.79;98705.13;5071468;28;20032;-77
2022/04/13 09:37:24;;;;;;;3.00;1.17;;;;;;;30.17;12.85;98701.25;5069961;28;20082;-77
2022/04/13 09:39:51;;;;;;;4.18;2.15;;;;;;;27.23;14.72;98715.06;5081929;28;20051;-77
2022/04/13 09:42:17;;;;;;;2.28;1.77;;;;;;;27.23;14.71;98705.81;5080898;28;20099;-77
2022/04/13 09:44:53;;;;;;;2.42;1.73;;;;;;;28.62;13.81;98699.56;5079260;28;20459;-77
2022/04/13 09:47:19;;;;;;;3.35;1.95;;;;;;;27.46;15.66;98704.84;5080229;28;20452;-77
2022/04/13 09:49:46;;;;;;;2.42;1.50;;;;;;;28.19;14.38;98693.59;5076731;28;20039;-77
2022/04/13 09:52:15;;;;;;;4.85;2.05;;;;;;;28.04;14.40;98693.19;5076018;28;20031;-77
2022/04/13 09:54:48;;;;;;;4.97;2.53;;;;;;;28.25;14.91;98690.97;5082590;28;20043;-77
2022/04/13 09:57:25;;;;;;;3.92;2.00;;;;;;;28.68;13.75;98692.09;5076862;28;20028;-77
2022/04/13 10:00:03;;;;;;;3.40;1.95;;;;;;;27.17;14.50;98691.44;5076419;28;20036;-77
2022/04/13 10:02:37;;;;;;;4.32;2.30;;;;;;;28.20;14.64;98695.16;5077900;28;20036;-77
2022/04/13 10:05:05;;;;;;;3.90;2.33;;;;;;;28.48;15.20;98694.31;5084182;28;20559;-77
2022/04/13 10:07:31;;;;;;;3.83;2.20;;;;;;;29.72;12.87;98687.47;5078358;28;20055;-77
2022/04/13 10:09:57;;;;;;;3.65;2.05;;;;;;;28.03;14.05;98685.94;5078185;28;20119;-77
2022/04/13 10:12:24;;;;;;;2.50;1.52;;;;;;;26.77;16.28;98692.03;5081066;28;20044;-77
2022/04/13 10:14:50;;;;;;;23.30;2.90;;;;;;;28.13;14.49;98686.88;5088811;28;20024;-77
2022/04/13 10:17:16;;;;;;;2.67;2.05;;;;;;;30.05;13.37;98685.91;5078696;28;20031;-77
2022/04/13 10:19:54;;;;;;;2.92;2.13;;;;;;;28.25;12.99;98685.34;5079235;28;20032;-77
2022/04/13 10:22:20;;;;;;;2.90;1.80;;;;;;;28.38;14.04;98686.94;5075479;28;20032;-77
2022/04/13 10:24:46;;;;;;;3.13;1.85;;;;;;;28.50;14.44;98689.00;5076541;28;20116;-77
2022/04/13 10:27:19;;;;;;;3.67;2.75;;;;;;;27.45;14.33;98687.13;5077677;28;20037;-77
2022/04/13 10:29:47;;;;;;;3.15;2.00;;;;;;;27.96;13.92;98682.50;5081088;28;20129;-76
2022/04/13 10:32:14;;;;;;;2.88;2.00;;;;;;;27.83;13.93;98688.13;5081916;28;20024;-77
2022/04/13 10:34:42;;;;;;;3.42;2.60;;;;;;;26.58;14.61;98690.81;5077971;28;20040;-77
2022/04/13 10:37:11;;;;;;;3.17;2.13;;;;;;;28.38;13.48;98683.34;5080682;28;20059;-77
2022/04/13 10:39:37;;;;;;;3.10;2.28;;;;;;;28.18;13.10;98672.22;5081117;28;20032;-78
2022/04/13 10:42:08;;;;;;;4.75;2.67;;;;;;;28.71;13.26;98671.44;5082989;28;20040;-78
2022/04/13 10:44:36;;;;;;;3.28;2.10;;;;;;;28.57;13.48;98671.84;5081408;28;20031;-78
2022/04/13 10:47:04;;;;;;;5.10;2.42;;;;;;;26.41;14.91;98667.44;5083084;28;20024;-78
2022/04/13 10:49:46;;;;;;;4.22;2.20;;;;;;;26.11;14.05;98670.50;5081531;28;20110;-77
2022/04/13 10:52:22;;;;;;;3.28;1.90;;;;;;;29.22;12.76;98668.63;5082374;28;20064;-76
2022/04/13 10:54:55;;;;;;;3.10;2.30;;;;;;;27.21;14.48;98674.44;5078536;28;20032;-77
2022/04/13 10:57:25;;;;;;;4.82;2.72;;;;;;;25.66;15.63;98678.59;5072911;28;20444;-77
2022/04/13 10:59:53;;;;;;;6.10;3.55;;;;;;;26.11;14.95;98678.16;5079137;28;20035;-77
2022/04/13 11:03:02;;;;;;;4.63;2.40;;;;;;;27.58;13.86;98656.97;5081001;28;20459;-77
2022/04/13 11:05:32;;;;;;;3.25;2.08;;;;;;;28.10;13.02;98661.59;4966110;28;20117;-77
2022/04/13 11:08:16;;;;;;;3.85;2.22;;;;;;;27.44;13.54;98659.38;4984256;28;20050;-76
2022/04/13 11:10:47;;;;;;;5.18;1.98;;;;;;;27.25;14.76;98656.19;5044994;28;20127;-77
2022/04/13 11:13:15;;;;;;;3.38;2.40;;;;;;;26.75;14.73;98664.28;5080965;28;20040;-77
2022/04/13 11:15:46;;;;;;;3.35;2.20;;;;;;;26.94;14.33;98652.13;5083083;28;20481;-77
2022/04/13 11:18:17;;;;;;;4.68;2.95;;;;;;;25.77;14.79;98661.50;5076685;28;20036;-77
2022/04/13 11:20:55;;;;;;;;;;;;;;;26.94;13.53;98662.63;5077743;28;20153;-77
2022/04/13 11:23:21;;;;;;;2.17;1.73;;;;;;;28.11;12.71;98658.31;5083583;28;19969;-77
2022/04/13 11:25:54;;;;;;;3.15;1.95;;;;;;;29.85;11.94;98654.28;5076689;28;20483;-77
2022/04/13 11:28:30;;;;;;;4.10;2.33;;;;;;;27.96;13.39;98660.72;5072852;28;20047;-77
2022/04/13 11:31:03;;;;;;;2.90;1.95;;;;;;;30.04;11.40;98661.66;5075307;28;20043;-77